Time;durP1;ratioP1;P1;durP2;ratioP2;P2;SDS_P1;SDS_P2;PMS_P1;PMS_P2;Temp;Humidity;BMP_temperature;BMP_pressure;BME280_temperature;BME280_humidity;BME280_pressure;Samples;Min_cycle;Max_cycle;Signal;HPM_P1;HPM_P2
2022/09/13 00:02:09;;;;;;;4.13;3.33;;;;;;;14.52;100.00;97769.25;5111309;28;20352;-65
2022/09/13 00:04:37;;;;;;;3.80;3.10;;;;;;;14.52;100.00;97763.94;5110925;28;20317;-65
2022/09/13 00:07:04;;;;;;;3.57;2.90;;;;;;;14.48;100.00;97766.03;5110744;28;20256;-65
2022/09/13 00:09:31;;;;;;;3.57;3.07;;;;;;;14.46;100.00;97769.81;5114887;28;20283;-65
2022/09/13 00:11:57;;;;;;;3.90;2.93;;;;;;;14.44;100.00;97772.63;5115424;28;20573;-65
2022/09/13 00:14:25;;;;;;;3.43;3.07;;;;;;;14.47;100.00;97769.69;5114921;28;20225;-65
2022/09/13 00:16:52;;;;;;;3.20;2.90;;;;;;;14.51;100.00;97772.88;5111482;28;20287;-64
2022/09/13 00:19:18;;;;;;;3.37;3.07;;;;;;;14.50;100.00;97766.75;5112766;28;20252;-63
2022/09/13 00:21:47;;;;;;;3.33;2.90;;;;;;;14.51;100.00;97756.94;5113573;28;20260;-64
2022/09/13 00:24:14;;;;;;;5.07;3.57;;;;;;;14.52;100.00;97756.81;5111287;28;20233;-64
2022/09/13 00:26:40;;;;;;;3.97;3.47;;;;;;;14.50;100.00;97756.13;5111207;28;20265;-64
2022/09/13 00:29:07;;;;;;;3.90;3.50;;;;;;;14.49;100.00;97758.91;5114055;28;20250;-64
2022/09/13 00:31:33;;;;;;;5.23;3.27;;;;;;;14.50;100.00;97755.25;5115078;28;20232;-64
2022/09/13 00:34:00;;;;;;;3.73;3.30;;;;;;;14.48;100.00;97751.91;5115110;28;20317;-63
2022/09/13 00:36:27;;;;;;;3.83;3.20;;;;;;;14.46;100.00;97753.84;5105511;28;20572;-64
2022/09/13 00:38:55;;;;;;;5.13;3.70;;;;;;;14.42;100.00;97752.47;5113887;28;20290;-64
2022/09/13 00:41:23;;;;;;;5.33;3.80;;;;;;;14.38;100.00;97753.72;5115123;28;20269;-64
2022/09/13 00:43:51;;;;;;;5.43;3.63;;;;;;;14.34;100.00;97761.13;5115055;28;20592;-65
2022/09/13 00:46:26;;;;;;;5.40;3.80;;;;;;;14.32;100.00;97754.25;5104323;28;20258;-64
2022/09/13 00:48:58;;;;;;;5.90;3.97;;;;;;;14.29;100.00;97751.91;5114401;28;20280;-64
2022/09/13 00:51:26;;;;;;;5.00;3.80;;;;;;;14.25;100.00;97750.47;5114821;28;20328;-64
2022/09/13 00:53:58;;;;;;;4.30;3.90;;;;;;;14.24;100.00;97746.16;5113112;28;20260;-65
2022/09/13 00:56:30;;;;;;;5.50;4.23;;;;;;;14.24;100.00;97743.50;5111236;28;20236;-65
2022/09/13 00:59:00;;;;;;;5.43;4.20;;;;;;;14.23;100.00;97736.50;5114535;28;20569;-65
2022/09/13 01:01:33;;;;;;;5.73;4.37;;;;;;;14.24;100.00;97732.84;5114427;28;20639;-65
2022/09/13 01:04:02;;;;;;;6.80;4.20;;;;;;;14.26;100.00;97736.22;5105265;28;20225;-65
2022/09/13 01:06:31;;;;;;;7.30;4.40;;;;;;;14.16;100.00;97725.53;5113298;28;20257;-64
2022/09/13 01:09:03;;;;;;;5.73;4.37;;;;;;;14.16;100.00;97722.03;5114225;28;20333;-64
2022/09/13 01:11:39;;;;;;;5.23;4.33;;;;;;;14.17;100.00;97715.75;5111701;28;20260;-64
2022/09/13 01:14:07;;;;;;;4.63;4.13;;;;;;;14.11;100.00;97714.47;5111008;28;20278;-64
2022/09/13 01:16:34;;;;;;;5.90;4.53;;;;;;;14.04;100.00;97717.81;5114021;28;20233;-64
2022/09/13 01:19:01;;;;;;;7.17;4.43;;;;;;;14.04;100.00;97721.31;5114203;28;20299;-64
2022/09/13 01:22:21;;;;;;;5.90;4.27;;;;;;;13.96;100.00;97718.50;5112100;28;20232;-64
2022/09/13 01:25:07;;;;;;;6.37;4.37;;;;;;;13.90;100.00;97723.53;5100387;28;20645;-65
2022/09/13 01:28:00;;;;;;;5.07;4.03;;;;;;;13.89;100.00;97719.19;5110392;28;20641;-64
2022/09/13 01:30:36;;;;;;;7.10;4.37;;;;;;;13.88;100.00;97728.13;5095920;28;20558;-64
2022/09/13 01:33:46;;;;;;;4.77;4.27;;;;;;;13.90;100.00;97731.50;5113770;28;20263;-64
2022/09/13 01:36:35;;;;;;;4.23;3.83;;;;;;;13.89;100.00;97722.69;4992034;28;20275;-64
2022/09/13 01:39:04;;;;;;;5.33;4.10;;;;;;;13.88;100.00;97722.81;5009898;28;20287;-64
2022/09/13 01:41:59;;;;;;;5.20;4.27;;;;;;;13.86;100.00;97722.94;5077345;28;20259;-64
2022/09/13 01:44:39;;;;;;;5.07;4.57;;;;;;;13.83;100.00;97727.69;5099432;28;20319;-64
2022/09/13 01:47:24;;;;;;;5.90;4.30;;;;;;;13.80;100.00;97718.19;5111245;28;20223;-64
2022/09/13 01:50:02;;;;;;;6.23;4.80;;;;;;;13.86;100.00;97719.44;5113287;28;20521;-64
2022/09/13 01:52:39;;;;;;;5.23;4.50;;;;;;;13.84;100.00;97718.75;5113338;28;20313;-64
2022/09/13 01:55:11;;;;;;;5.37;4.60;;;;;;;13.78;100.00;97719.28;5110019;28;20260;-65
2022/09/13 01:57:44;;;;;;;5.43;4.20;;;;;;;13.76;100.00;97726.56;5112511;28;20228;-64
2022/09/13 02:00:14;;;;;;;6.00;4.50;;;;;;;13.76;100.00;97721.25;5113411;28;20221;-64
2022/09/13 02:02:49;;;;;;;5.47;4.70;;;;;;;13.71;100.00;97729.63;5110839;28;20256;-64
2022/09/13 02:05:21;;;;;;;7.63;5.57;;;;;;;13.61;100.00;97727.91;5110284;28;20232;-65
2022/09/13 02:07:57;;;;;;;7.27;4.87;;;;;;;13.53;100.00;97735.69;5113239;28;20550;-65
2022/09/13 02:10:28;;;;;;;8.83;5.80;;;;;;;13.45;100.00;97724.91;5113096;28;20549;-64
2022/09/13 02:12:58;;;;;;;6.53;5.00;;;;;;;13.38;100.00;97727.25;5108409;28;20224;-64
2022/09/13 02:15:27;;;;;;;6.97;5.27;;;;;;;13.34;100.00;97727.66;5112760;28;20319;-64
2022/09/13 02:18:04;;;;;;;7.23;5.17;;;;;;;13.27;100.00;97719.38;5113059;28;20390;-64
2022/09/13 02:20:35;;;;;;;6.17;5.23;;;;;;;13.24;100.00;97729.41;5110626;28;20270;-65
2022/09/13 02:23:10;;;;;;;8.33;5.23;;;;;;;13.21;100.00;97733.16;5105024;28;20225;-64
2022/09/13 02:25:39;;;;;;;6.50;5.30;;;;;;;13.17;100.00;97728.25;5112908;28;20278;-64
2022/09/13 02:28:09;;;;;;;6.63;4.73;;;;;;;13.19;100.00;97736.91;5112314;28;20256;-64
2022/09/13 02:30:41;;;;;;;5.73;4.90;;;;;;;13.21;100.00;97729.69;5102323;28;20244;-65
2022/09/13 02:33:13;;;;;;;5.90;4.97;;;;;;;13.20;100.00;97728.00;5112645;28;20264;-65
2022/09/13 02:35:46;;;;;;;6.10;4.43;;;;;;;13.21;100.00;97719.06;5112697;28;20260;-64
2022/09/13 02:38:18;;;;;;;6.53;4.80;;;;;;;13.19;100.00;97721.00;5110112;28;20224;-64
2022/09/13 02:40:53;;;;;;;7.13;4.77;;;;;;;13.18;100.00;97725.50;5110536;28;20253;-64
2022/09/13 02:43:25;;;;;;;8.13;4.67;;;;;;;13.20;100.00;97728.00;5112589;28;20258;-64
2022/09/13 02:45:58;;;;;;;7.27;5.10;;;;;;;13.22;100.00;97728.72;5112106;28;20501;-64
2022/09/13 02:48:37;;;;;;;6.37;5.03;;;;;;;13.20;100.00;97728.84;5108753;28;20228;-64
2022/09/13 02:51:08;;;;;;;7.03;4.83;;;;;;;13.16;100.00;97729.25;5112106;28;20243;-64
2022/09/13 02:53:42;;;;;;;6.57;5.20;;;;;;;13.16;100.00;97722.13;5111560;28;20228;-64
2022/09/13 02:56:21;;;;;;;7.77;5.53;;;;;;;13.14;100.00;97720.59;5101232;28;20226;-64
2022/09/13 02:58:54;;;;;;;6.30;5.07;;;;;;;13.10;100.00;97720.00;5091221;28;20233;-64
2022/09/13 03:01:21;;;;;;;7.60;4.87;;;;;;;13.06;100.00;97721.22;5111613;28;20216;-64
2022/09/13 03:03:52;;;;;;;7.47;5.23;;;;;;;13.03;100.00;97725.97;5108907;28;20536;-64
2022/09/13 03:06:23;;;;;;;7.00;5.17;;;;;;;13.04;100.00;97727.63;5109333;28;20225;-63
2022/09/13 03:08:50;;;;;;;6.57;4.80;;;;;;;13.04;100.00;97732.94;5111450;28;20593;-65
2022/09/13 03:11:29;;;;;;;6.73;5.00;;;;;;;13.08;100.00;97718.44;5111287;28;20292;-64
2022/09/13 03:14:14;;;;;;;6.90;4.77;;;;;;;13.04;100.00;97717.03;5103251;28;20288;-64
2022/09/13 03:16:54;;;;;;;8.20;5.30;;;;;;;13.05;100.00;97713.41;5093798;28;20577;-64
2022/09/13 03:19:39;;;;;;;6.27;5.00;;;;;;;13.05;100.00;97698.34;5110134;28;20274;-64
2022/09/13 03:22:23;;;;;;;7.27;4.87;;;;;;;13.05;100.00;97703.63;5107834;28;20612;-64
2022/09/13 03:25:00;;;;;;;6.33;5.30;;;;;;;13.04;100.00;97696.66;5111254;28;20262;-64
2022/09/13 03:27:35;;;;;;;6.40;5.20;;;;;;;13.01;100.00;97702.22;5108127;28;20232;-64
2022/09/13 03:30:05;;;;;;;7.57;5.50;;;;;;;12.96;100.00;97687.66;5109538;28;20285;-64
2022/09/13 03:32:39;;;;;;;7.67;5.33;;;;;;;12.92;100.00;97686.22;5111055;28;20234;-64
2022/09/13 03:35:17;;;;;;;7.20;5.40;;;;;;;12.86;100.00;97702.63;5109708;28;20260;-64
2022/09/13 03:37:57;;;;;;;6.97;5.77;;;;;;;12.88;100.00;97696.25;5108237;28;20370;-64
2022/09/13 03:40:35;;;;;;;7.83;5.83;;;;;;;12.88;100.00;97712.16;5109542;28;20285;-65
2022/09/13 03:43:08;;;;;;;8.37;5.77;;;;;;;12.92;100.00;97728.66;5109008;28;20270;-65
2022/09/13 03:45:40;;;;;;;8.03;5.43;;;;;;;12.93;100.00;97727.66;5108054;28;20223;-64
2022/09/13 03:48:08;;;;;;;8.57;4.93;;;;;;;12.94;100.00;97726.69;5108978;28;20227;-64
2022/09/13 03:50:36;;;;;;;5.97;4.80;;;;;;;12.89;100.00;97715.66;5110725;28;20278;-64
2022/09/13 03:53:08;;;;;;;6.50;5.23;;;;;;;12.86;100.00;97707.94;5066187;28;1186604;-64
2022/09/13 03:55:41;;;;;;;6.87;5.33;;;;;;;12.79;100.00;97696.19;5110191;28;20258;-64
2022/09/13 03:58:10;;;;;;;9.23;5.67;;;;;;;12.72;100.00;97702.97;5111487;28;20231;-64
2022/09/13 04:00:37;;;;;;;6.63;5.13;;;;;;;12.70;100.00;97699.59;5110826;28;20575;-64
2022/09/13 04:03:04;;;;;;;9.77;6.23;;;;;;;12.75;100.00;97694.75;5107671;28;20645;-64
2022/09/13 04:05:30;;;;;;;7.30;5.50;;;;;;;12.78;100.00;97691.84;5110945;28;20226;-64
2022/09/13 04:07:58;;;;;;;7.27;5.70;;;;;;;12.76;100.00;97696.44;5111326;28;20269;-64
2022/09/13 04:10:25;;;;;;;7.17;5.57;;;;;;;12.77;100.00;97693.66;5111086;28;20284;-64
2022/09/13 04:12:53;;;;;;;7.70;5.63;;;;;;;12.74;100.00;97687.78;5105808;28;20227;-64
2022/09/13 04:15:20;;;;;;;7.50;5.37;;;;;;;12.68;100.00;97683.00;5110012;28;20280;-64
2022/09/13 04:17:47;;;;;;;8.47;6.43;;;;;;;12.61;100.00;97682.69;5111385;28;20311;-64
2022/09/13 04:20:14;;;;;;;8.20;5.93;;;;;;;12.58;100.00;97679.41;5111209;28;20218;-64
2022/09/13 04:22:41;;;;;;;7.00;5.17;;;;;;;12.54;100.00;97685.97;5101981;28;20595;-64
2022/09/13 04:25:09;;;;;;;8.10;5.47;;;;;;;12.50;100.00;97685.38;5108982;28;20615;-64
2022/09/13 04:27:36;;;;;;;5.77;5.17;;;;;;;12.45;100.00;97681.41;5111295;28;20265;-64
2022/09/13 04:30:03;;;;;;;5.77;4.77;;;;;;;12.44;100.00;97690.34;5110890;28;20239;-64
2022/09/13 04:32:31;;;;;;;6.77;4.90;;;;;;;12.55;100.00;97703.56;5108541;28;20247;-63
2022/09/13 04:34:57;;;;;;;5.80;4.93;;;;;;;12.67;100.00;97702.53;5108046;28;20527;-64
2022/09/13 04:37:24;;;;;;;7.03;4.87;;;;;;;12.79;100.00;97714.75;5110967;28;20259;-64
2022/09/13 04:39:52;;;;;;;5.97;4.97;;;;;;;12.94;100.00;97721.38;5109400;28;20529;-63
2022/09/13 04:42:20;;;;;;;7.17;5.07;;;;;;;13.05;100.00;97719.56;5108946;28;20295;-65
2022/09/13 04:44:48;;;;;;;5.40;4.67;;;;;;;13.16;100.00;97726.59;5108079;28;20272;-63
2022/09/13 04:47:15;;;;;;;5.47;4.70;;;;;;;13.24;100.00;97722.31;5110982;28;20659;-64
2022/09/13 04:49:42;;;;;;;5.63;4.53;;;;;;;13.32;100.00;97721.66;5110859;28;20665;-65
2022/09/13 04:52:09;;;;;;;5.53;4.60;;;;;;;13.39;100.00;97714.84;5110287;28;20732;-64
2022/09/13 04:54:36;;;;;;;7.00;4.53;;;;;;;13.46;100.00;97729.25;5111359;28;20658;-64
2022/09/13 04:57:03;;;;;;;6.13;4.50;;;;;;;13.51;100.00;97721.72;5114556;28;20227;-64
2022/09/13 04:59:31;;;;;;;4.57;4.00;;;;;;;13.55;100.00;97725.78;5114630;28;20620;-64
2022/09/13 05:01:58;;;;;;;5.90;4.70;;;;;;;13.60;100.00;97736.84;5112486;28;20230;-64
2022/09/13 05:04:25;;;;;;;6.17;3.90;;;;;;;13.64;100.00;97743.56;5111022;28;20272;-63
2022/09/13 05:06:51;;;;;;;5.90;4.57;;;;;;;13.70;100.00;97749.19;5112762;28;20232;-64
2022/09/13 05:09:18;;;;;;;7.30;5.00;;;;;;;13.80;100.00;97744.75;5114441;28;20558;-64
2022/09/13 05:11:45;;;;;;;6.03;4.60;;;;;;;13.82;100.00;97745.44;5112777;28;20279;-64
2022/09/13 05:14:12;;;;;;;6.73;5.00;;;;;;;13.83;100.00;97743.63;5110533;28;20258;-65
2022/09/13 05:16:40;;;;;;;5.73;4.50;;;;;;;13.77;100.00;97733.56;5092535;28;20266;-64
2022/09/13 05:19:07;;;;;;;5.83;4.53;;;;;;;13.74;100.00;97739.16;5114035;28;20227;-64
2022/09/13 05:21:33;;;;;;;4.53;3.97;;;;;;;13.77;100.00;97749.50;5112795;28;20378;-64
2022/09/13 05:24:00;;;;;;;6.70;4.27;;;;;;;13.79;100.00;97752.84;5106291;28;20238;-64
2022/09/13 05:26:29;;;;;;;6.70;4.40;;;;;;;13.81;100.00;97761.53;5091977;28;20305;-64
2022/09/13 05:28:56;;;;;;;4.80;3.87;;;;;;;13.81;100.00;97757.03;5113949;28;20223;-64
2022/09/13 05:31:24;;;;;;;5.23;4.00;;;;;;;13.84;100.00;97748.81;5110931;28;20279;-64
2022/09/13 05:33:55;;;;;;;4.63;3.77;;;;;;;13.86;100.00;97749.53;5110084;28;20225;-64
2022/09/13 05:36:22;;;;;;;5.57;4.30;;;;;;;13.93;100.00;97755.97;5092973;28;20271;-64
2022/09/13 05:38:49;;;;;;;5.20;3.93;;;;;;;13.97;100.00;97760.03;5113625;28;20268;-64
2022/09/13 05:41:15;;;;;;;6.27;4.70;;;;;;;13.99;100.00;97758.06;5112282;28;20255;-64
2022/09/13 05:43:42;;;;;;;5.60;4.67;;;;;;;14.05;100.00;97776.13;5109856;28;20224;-64
2022/09/13 05:46:12;;;;;;;8.37;4.00;;;;;;;14.07;100.00;97768.88;5113724;28;20250;-64
2022/09/13 05:48:40;;;;;;;4.73;3.87;;;;;;;14.11;100.00;97764.16;5113603;28;20224;-64
2022/09/13 05:51:10;;;;;;;5.63;3.90;;;;;;;14.11;100.00;97761.50;5111577;28;20648;-64
2022/09/13 05:53:38;;;;;;;12.20;8.20;;;;;;;14.17;100.00;97763.59;5110323;28;20246;-64
2022/09/13 05:56:05;;;;;;;6.97;5.13;;;;;;;14.19;100.00;97757.16;5108581;28;20229;-63
2022/09/13 05:58:32;;;;;;;6.30;4.43;;;;;;;14.23;100.00;97758.59;5105734;28;20262;-63
2022/09/13 06:00:59;;;;;;;4.47;4.07;;;;;;;14.29;100.00;97752.72;5111361;28;20231;-63
2022/09/13 06:03:26;;;;;;;6.63;4.20;;;;;;;14.42;100.00;97747.16;5108981;28;20264;-63
2022/09/13 06:05:55;;;;;;;6.10;4.13;;;;;;;14.56;100.00;97762.69;5113298;28;20263;-63
2022/09/13 06:08:23;;;;;;;6.10;4.37;;;;;;;14.70;100.00;97764.91;5113173;28;20267;-63
2022/09/13 06:10:57;;;;;;;4.70;4.20;;;;;;;14.81;100.00;97776.28;5110978;28;20249;-63
2022/09/13 06:13:24;;;;;;;4.90;3.80;;;;;;;14.94;100.00;97775.97;5110989;28;20520;-64
2022/09/13 06:15:51;;;;;;;6.33;4.07;;;;;;;15.03;100.00;97775.97;5113082;28;20265;-65
2022/09/13 06:18:18;;;;;;;5.00;4.03;;;;;;;15.11;100.00;97784.09;5112924;28;20260;-65
2022/09/13 06:20:46;;;;;;;4.73;4.00;;;;;;;15.18;100.00;97779.03;5110089;28;20264;-65
2022/09/13 06:23:13;;;;;;;4.90;3.87;;;;;;;15.20;100.00;97779.72;5101908;28;20256;-64
2022/09/13 06:25:41;;;;;;;6.13;4.13;;;;;;;15.20;100.00;97785.03;5112923;28;20685;-64
2022/09/13 06:28:09;;;;;;;5.47;4.37;;;;;;;15.19;100.00;97775.38;5112953;28;20283;-64
2022/09/13 06:30:36;;;;;;;5.90;4.20;;;;;;;15.14;100.00;97777.63;5106874;28;20289;-64
2022/09/13 06:33:03;;;;;;;5.30;4.07;;;;;;;15.12;100.00;97774.28;5109002;28;20265;-64
2022/09/13 06:35:29;;;;;;;5.57;4.10;;;;;;;15.11;100.00;97775.25;5111392;28;20235;-64
2022/09/13 06:37:57;;;;;;;6.40;4.70;;;;;;;15.05;100.00;97774.00;5111202;28;20661;-64
2022/09/13 06:40:24;;;;;;;5.07;4.17;;;;;;;15.05;100.00;97781.16;5108565;28;20574;-64
2022/09/13 06:42:52;;;;;;;5.80;4.20;;;;;;;15.07;100.00;97768.53;5108432;28;20535;-64
2022/09/13 06:45:19;;;;;;;5.93;4.53;;;;;;;15.13;100.00;97765.28;5111024;28;20224;-64
2022/09/13 06:47:45;;;;;;;6.77;4.97;;;;;;;15.22;100.00;97764.44;5111018;28;20224;-64
2022/09/13 06:50:12;;;;;;;6.33;5.03;;;;;;;15.34;100.00;97766.00;5106795;28;20474;-64
2022/09/13 06:52:39;;;;;;;7.13;5.03;;;;;;;15.45;100.00;97760.50;5107723;28;20242;-64
2022/09/13 06:55:06;;;;;;;6.70;4.70;;;;;;;15.58;100.00;97769.00;5110802;28;20228;-63
2022/09/13 06:57:33;;;;;;;7.10;4.30;;;;;;;15.73;100.00;97767.53;5110760;28;20329;-63
2022/09/13 07:00:01;;;;;;;6.00;4.37;;;;;;;15.86;100.00;97758.22;5108637;28;20634;-64
2022/09/13 07:02:28;;;;;;;7.57;4.63;;;;;;;16.02;100.00;97745.94;5107582;28;20275;-64
2022/09/13 07:04:54;;;;;;;6.93;4.87;;;;;;;16.19;100.00;97753.13;5110409;28;20692;-64
2022/09/13 07:07:21;;;;;;;5.60;4.43;;;;;;;16.39;100.00;97754.72;5110557;28;20261;-64
2022/09/13 07:09:47;;;;;;;5.87;4.70;;;;;;;16.64;100.00;97742.47;5108787;28;20328;-64
2022/09/13 07:12:14;;;;;;;6.97;4.60;;;;;;;16.87;99.45;97746.31;5097683;28;20281;-64
2022/09/13 07:14:41;;;;;;;6.80;4.10;;;;;;;17.06;98.00;97755.00;5110349;28;20230;-64
2022/09/13 07:17:09;;;;;;;6.00;4.57;;;;;;;17.20;96.87;97754.44;5108893;28;20258;-64
2022/09/13 07:19:35;;;;;;;5.33;4.17;;;;;;;17.28;94.95;97764.34;5109048;28;20226;-64
2022/09/13 07:22:03;;;;;;;6.30;4.30;;;;;;;17.37;93.79;97748.25;5106616;28;20253;-64
2022/09/13 07:24:30;;;;;;;5.40;4.03;;;;;;;17.43;93.69;97742.28;5089201;28;20228;-64
2022/09/13 07:26:57;;;;;;;4.90;3.80;;;;;;;17.49;93.69;97741.63;5110419;28;20260;-64
2022/09/13 07:29:24;;;;;;;9.53;4.10;;;;;;;17.55;93.29;97741.00;5109082;28;20265;-64
2022/09/13 07:31:53;;;;;;;5.53;3.80;;;;;;;17.63;91.72;97733.03;5106390;28;20281;-65
2022/09/13 07:34:23;;;;;;;4.10;3.60;;;;;;;17.70;90.80;97728.75;5088987;28;20224;-64
2022/09/13 07:36:51;;;;;;;5.13;3.90;;;;;;;17.84;90.36;97736.16;5110043;28;20261;-64
2022/09/13 07:39:18;;;;;;;4.57;4.00;;;;;;;18.05;89.12;97741.91;5108275;28;20225;-64
2022/09/13 07:41:45;;;;;;;5.20;3.40;;;;;;;18.33;88.09;97748.72;5105706;28;20532;-64
2022/09/13 07:44:15;;;;;;;5.87;3.93;;;;;;;18.61;86.74;97752.81;5109389;28;20226;-64
2022/09/13 07:46:43;;;;;;;4.67;3.37;;;;;;;18.88;84.61;97749.81;5110018;28;20272;-64
2022/09/13 07:49:11;;;;;;;6.90;3.53;;;;;;;19.18;82.50;97757.19;5107981;28;20232;-64
2022/09/13 07:51:41;;;;;;;4.77;2.80;;;;;;;19.48;80.62;97755.66;5103305;28;20242;-64
2022/09/13 07:54:11;;;;;;;8.00;3.30;;;;;;;19.75;76.86;97763.34;5109022;28;20257;-65
2022/09/13 07:56:39;;;;;;;3.13;2.83;;;;;;;19.95;77.32;97753.88;5110108;28;20270;-64
2022/09/13 07:59:10;;;;;;;4.50;3.03;;;;;;;20.13;75.33;97750.00;5107015;28;20233;-64
2022/09/13 08:01:39;;;;;;;2.70;2.50;;;;;;;20.34;74.99;97742.16;5108103;28;20510;-64
2022/09/13 08:04:08;;;;;;;2.90;2.30;;;;;;;20.54;74.09;97737.19;5109929;28;20630;-64
2022/09/13 08:06:38;;;;;;;4.93;2.70;;;;;;;20.73;73.40;97737.53;5110066;28;20253;-64
2022/09/13 08:09:07;;;;;;;2.77;2.57;;;;;;;20.88;72.81;97738.50;5099129;28;20227;-64
2022/09/13 08:11:36;;;;;;;4.00;2.27;;;;;;;21.02;72.03;97735.00;5108980;28;20305;-64
2022/09/13 08:14:03;;;;;;;2.47;2.27;;;;;;;21.14;71.59;97736.25;5109937;28;20263;-64
2022/09/13 08:16:30;;;;;;;2.60;2.40;;;;;;;21.24;70.55;97739.53;5109542;28;20271;-64
2022/09/13 08:18:58;;;;;;;3.10;2.20;;;;;;;21.35;69.67;97722.97;5106286;28;20254;-64
2022/09/13 08:21:26;;;;;;;4.30;2.40;;;;;;;21.46;69.35;97722.50;5109229;28;20257;-64
2022/09/13 08:23:58;;;;;;;3.47;2.33;;;;;;;21.57;68.88;97716.69;5103510;28;20224;-64
2022/09/13 08:26:26;;;;;;;2.67;2.47;;;;;;;21.63;67.80;97721.31;5101756;28;20234;-64
2022/09/13 08:28:56;;;;;;;3.30;2.20;;;;;;;21.75;67.84;97719.88;5109939;28;20261;-64
2022/09/13 08:31:23;;;;;;;2.83;2.17;;;;;;;21.87;67.52;97736.38;5092331;28;20277;-65
2022/09/13 08:33:49;;;;;;;2.63;2.07;;;;;;;21.96;66.74;97727.19;5113577;28;20249;-64
2022/09/13 08:36:17;;;;;;;2.67;2.00;;;;;;;22.11;65.94;97731.56;5110474;28;20253;-64
2022/09/13 08:38:46;;;;;;;2.43;2.23;;;;;;;22.26;64.50;97729.66;5109766;28;20273;-64
2022/09/13 08:41:36;;;;;;;2.13;1.93;;;;;;;22.37;64.48;97731.88;5092290;28;20261;-64
2022/09/13 08:44:08;;;;;;;3.07;1.90;;;;;;;22.53;64.90;97726.31;5112846;28;20314;-64
2022/09/13 08:46:39;;;;;;;3.10;2.10;;;;;;;22.66;64.40;97726.44;5109563;28;20254;-64
2022/09/13 08:49:12;;;;;;;2.93;2.00;;;;;;;22.83;63.95;97729.72;5092551;28;20257;-64
2022/09/13 08:51:43;;;;;;;3.43;1.90;;;;;;;23.09;62.14;97732.66;5113060;28;20285;-64
2022/09/13 08:54:12;;;;;;;2.20;2.00;;;;;;;23.21;61.51;97732.00;5110216;28;20231;-64
2022/09/13 08:56:44;;;;;;;2.30;2.10;;;;;;;23.37;61.08;97730.88;5110853;28;20279;-64
2022/09/13 08:59:26;;;;;;;2.53;1.70;;;;;;;23.54;60.85;97724.16;5113115;28;20222;-64
2022/09/13 09:02:02;;;;;;;3.80;2.00;;;;;;;23.75;60.50;97724.09;5109625;28;20257;-64
2022/09/13 09:04:39;;;;;;;2.20;2.00;;;;;;;23.87;58.61;97727.91;5110579;28;20291;-64
2022/09/13 09:07:12;;;;;;;2.20;2.00;;;;;;;23.93;58.58;97719.91;5112940;28;20639;-64
2022/09/13 09:09:44;;;;;;;2.87;1.97;;;;;;;24.04;59.45;97722.03;5112059;28;20730;-64
2022/09/13 09:12:21;;;;;;;2.63;2.20;;;;;;;24.11;57.66;97717.50;5108963;28;20278;-64
2022/09/13 09:14:58;;;;;;;3.43;1.90;;;;;;;24.13;58.16;97712.72;5094141;28;20301;-64
2022/09/13 09:17:29;;;;;;;2.40;1.83;;;;;;;24.15;56.78;97713.34;5112842;28;20261;-64
2022/09/13 09:20:03;;;;;;;2.27;2.00;;;;;;;24.14;57.42;97717.09;5104161;28;20285;-64
2022/09/13 09:22:34;;;;;;;2.30;2.00;;;;;;;24.15;55.60;97716.03;5091093;28;20300;-64
2022/09/13 09:25:01;;;;;;;2.00;1.80;;;;;;;24.20;55.02;97724.38;5112668;28;20260;-64
2022/09/13 09:27:31;;;;;;;1.90;1.80;;;;;;;24.16;54.10;97728.53;5110958;28;20344;-64
2022/09/13 09:29:58;;;;;;;2.90;1.83;;;;;;;24.19;54.17;97738.94;5107553;28;20262;-64
2022/09/13 09:32:48;;;;;;;2.20;2.00;;;;;;;24.25;54.61;97724.63;5112067;28;20258;-64
2022/09/13 09:35:27;;;;;;;4.43;1.80;;;;;;;24.21;54.57;97726.03;5111176;28;20291;-64
2022/09/13 09:38:13;;;;;;;2.47;1.70;;;;;;;24.23;54.84;97724.00;5109799;28;20234;-64
2022/09/13 09:40:40;;;;;;;3.03;1.73;;;;;;;24.14;54.80;97708.97;5107620;28;20226;-64
2022/09/13 09:43:17;;;;;;;2.03;1.90;;;;;;;24.07;55.46;97708.13;5108451;28;20504;-64
2022/09/13 09:45:45;;;;;;;2.00;1.90;;;;;;;23.93;56.01;97716.34;5109457;28;20265;-64
2022/09/13 09:48:18;;;;;;;3.77;2.03;;;;;;;23.80;56.42;97711.69;5112184;28;20226;-64
2022/09/13 09:50:50;;;;;;;2.27;1.90;;;;;;;23.62;56.77;97718.63;5112164;28;20268;-64
2022/09/13 09:53:23;;;;;;;3.10;1.90;;;;;;;23.46;57.54;97719.75;5102768;28;20657;-64
2022/09/13 09:55:54;;;;;;;2.03;1.87;;;;;;;23.31;58.45;97721.72;5109682;28;20233;-66
2022/09/13 09:58:37;;;;;;;2.00;1.70;;;;;;;23.25;58.91;97727.03;5112117;28;20654;-64
2022/09/13 10:01:05;;;;;;;1.93;1.80;;;;;;;23.21;58.68;97737.38;5108613;28;20519;-64
2022/09/13 10:03:34;;;;;;;1.90;1.70;;;;;;;23.20;58.69;97733.03;5109946;28;20566;-64
2022/09/13 10:06:07;;;;;;;2.83;1.87;;;;;;;23.22;58.56;97730.16;5111650;28;20257;-64
2022/09/13 10:08:36;;;;;;;1.97;1.70;;;;;;;23.28;58.73;97738.28;5111688;28;20269;-64
2022/09/13 10:11:04;;;;;;;2.30;1.90;;;;;;;23.46;58.20;97725.13;5107811;28;20314;-64
2022/09/13 10:13:33;;;;;;;1.80;1.70;;;;;;;23.70;57.34;97735.50;5110903;28;20245;-64
2022/09/13 10:16:01;;;;;;;2.10;1.90;;;;;;;23.87;56.92;97731.47;5111753;28;20222;-64
2022/09/13 10:18:29;;;;;;;1.80;1.70;;;;;;;24.01;55.53;97730.53;5110917;28;20283;-64
2022/09/13 10:21:02;;;;;;;2.33;2.13;;;;;;;23.99;54.78;97729.91;5107724;28;20261;-64
2022/09/13 10:23:29;;;;;;;2.83;1.57;;;;;;;23.97;54.71;97729.28;5094861;28;20712;-64
2022/09/13 10:26:02;;;;;;;1.73;1.60;;;;;;;24.07;55.80;97734.31;5111371;28;20660;-64
2022/09/13 10:28:30;;;;;;;2.30;1.80;;;;;;;24.14;56.43;97725.19;5109135;28;20222;-64
2022/09/13 10:31:02;;;;;;;2.40;2.03;;;;;;;24.24;54.22;97712.16;5108259;28;20565;-64
2022/09/13 10:33:32;;;;;;;1.80;1.70;;;;;;;24.39;52.96;97712.81;5111147;28;20277;-64
2022/09/13 10:36:03;;;;;;;1.70;1.53;;;;;;;24.51;53.25;97713.91;5111358;28;20301;-64
2022/09/13 10:38:33;;;;;;;1.83;1.60;;;;;;;24.65;52.07;97704.84;5107518;28;20227;-64
2022/09/13 10:41:03;;;;;;;2.47;1.70;;;;;;;24.85;53.16;97713.81;5110078;28;20262;-65
2022/09/13 10:43:32;;;;;;;1.50;1.40;;;;;;;25.05;52.05;97703.88;5111155;28;20258;-64
2022/09/13 10:46:02;;;;;;;3.07;2.57;;;;;;;25.09;51.02;97698.88;5110605;28;20282;-65
2022/09/13 10:48:31;;;;;;;1.30;1.20;;;;;;;25.07;50.21;97695.56;5105510;28;20292;-64
2022/09/13 10:51:05;;;;;;;1.83;1.50;;;;;;;25.08;49.80;97692.66;5110201;28;20271;-65
2022/09/13 10:53:36;;;;;;;1.10;1.10;;;;;;;25.16;49.80;97689.72;5110716;28;20238;-64
2022/09/13 10:56:04;;;;;;;2.10;1.33;;;;;;;25.27;49.96;97694.56;5105096;28;20226;-65
2022/09/13 10:58:31;;;;;;;2.13;1.33;;;;;;;25.52;49.33;97692.88;5108142;28;20227;-65
2022/09/13 11:01:31;;;;;;;1.40;1.30;;;;;;;25.81;45.85;97696.97;5110849;28;20226;-64
2022/09/13 11:04:39;;;;;;;1.70;1.40;;;;;;;26.12;45.24;97694.44;5107866;28;20226;-64
2022/09/13 11:07:20;;;;;;;1.63;1.30;;;;;;;26.52;43.98;97699.47;5095597;28;20265;-64
2022/09/13 11:09:54;;;;;;;1.30;1.20;;;;;;;26.82;44.05;97684.31;5108517;28;20265;-65
2022/09/13 11:12:28;;;;;;;1.37;1.27;;;;;;;26.97;43.80;97686.72;5108416;28;20250;-65
2022/09/13 11:15:03;;;;;;;2.63;1.27;;;;;;;26.99;43.31;97693.59;5108759;28;20253;-65
2022/09/13 11:17:51;;;;;;;1.43;1.20;;;;;;;27.15;42.89;97693.06;5109677;28;20225;-65
2022/09/13 11:20:29;;;;;;;1.17;1.00;;;;;;;27.42;41.86;97688.28;5109060;28;20632;-66
2022/09/13 11:23:14;;;;;;;1.00;0.90;;;;;;;27.59;40.67;97695.63;5110419;28;20629;-66
2022/09/13 11:25:56;;;;;;;1.67;1.10;;;;;;;27.83;40.90;97694.78;5106728;28;20659;-66
2022/09/13 11:28:33;;;;;;;1.07;0.97;;;;;;;28.02;39.54;97693.75;5089258;28;20261;-65
2022/09/13 11:31:14;;;;;;;2.23;1.33;;;;;;;27.89;40.01;97692.00;5110425;28;20274;-66
2022/09/13 11:33:56;;;;;;;3.07;1.10;;;;;;;27.79;39.29;97683.56;5101238;28;20281;-66
2022/09/13 11:36:46;;;;;;;2.37;1.00;;;;;;;27.80;39.45;97687.09;5091577;28;20280;-65
2022/09/13 11:39:23;;;;;;;1.27;1.10;;;;;;;27.79;40.04;97688.16;5108759;28;20226;-66
2022/09/13 11:41:59;;;;;;;1.40;1.10;;;;;;;27.72;39.14;97703.66;5106135;28;20223;-67
2022/09/13 11:44:50;;;;;;;1.33;1.20;;;;;;;27.69;39.94;97709.53;5110312;28;20221;-65
2022/09/13 11:47:31;;;;;;;1.80;1.20;;;;;;;27.64;39.64;97707.47;5106861;28;20365;-66
2022/09/13 11:50:15;;;;;;;1.17;1.07;;;;;;;27.68;40.77;97703.25;5109817;28;20240;-66